Time;durP1;ratioP1;P1;durP2;ratioP2;P2;SDS_P1;SDS_P2;PMS_P1;PMS_P2;Temp;Humidity;BMP_temperature;BMP_pressure;BME280_temperature;BME280_humidity;BME280_pressure;Samples;Min_cycle;Max_cycle;Signal;HPM_P1;HPM_P2
2023/04/08 00:01:26;;;;;;;;;9.50;6.50;;;;;11.54;65.46;100296.59;5058471;28;46339;-89
2023/04/08 00:03:51;;;;;;;;;7.75;5.50;;;;;11.55;66.01;100294.00;5067888;28;45554;-88
2023/04/08 00:06:17;;;;;;;;;5.00;5.00;;;;;11.37;66.58;100283.13;5078277;28;45307;-88
2023/04/08 00:08:42;;;;;;;;;5.75;5.00;;;;;11.38;65.93;100290.13;5069913;28;45791;-85
2023/04/08 00:11:08;;;;;;;;;5.00;4.50;;;;;11.33;66.34;100284.78;5075912;28;45937;-89
2023/04/08 00:13:34;;;;;;;;;9.25;7.25;;;;;11.34;66.12;100291.81;5058258;28;45537;-89
2023/04/08 00:16:00;;;;;;;;;6.75;6.00;;;;;11.33;65.66;100289.13;5072316;28;45513;-73
2023/04/08 00:18:26;;;;;;;;;6.25;5.75;;;;;11.23;66.06;100277.59;5064403;28;45678;-87
2023/04/08 00:20:51;;;;;;;;;5.75;5.00;;;;;11.13;67.04;100292.16;5054813;28;45334;-89
2023/04/08 00:23:17;;;;;;;;;6.00;6.00;;;;;10.79;68.29;100273.94;5068322;28;45300;-89
2023/04/08 00:25:42;;;;;;;;;3.50;3.00;;;;;10.84;68.16;100299.34;5074265;28;45553;-71
2023/04/08 00:28:08;;;;;;;;;5.00;4.00;;;;;10.74;68.09;100284.25;5077410;28;45481;-88
2023/04/08 00:30:33;;;;;;;;;5.25;4.75;;;;;10.77;68.09;100284.34;5070373;28;45504;-88
2023/04/08 00:33:00;;;;;;;;;5.25;5.00;;;;;10.73;68.33;100274.66;5067532;28;45533;-86
2023/04/08 00:35:26;;;;;;;;;5.25;4.75;;;;;10.80;69.05;100284.41;5064858;28;45425;-88
2023/04/08 00:37:51;;;;;;;;;6.00;5.75;;;;;10.81;69.16;100277.47;5047272;28;45505;-88
2023/04/08 00:40:17;;;;;;;;;5.50;4.50;;;;;10.78;67.80;100280.84;5064998;28;45550;-88
2023/04/08 00:42:42;;;;;;;;;5.00;5.00;;;;;10.70;68.01;100264.13;5076688;28;45503;-86
2023/04/08 00:45:09;;;;;;;;;4.50;4.00;;;;;10.72;67.47;100275.47;5075940;28;45296;-78
2023/04/08 00:47:35;;;;;;;;;4.00;4.00;;;;;10.73;67.14;100269.44;5065470;28;45320;-87
2023/04/08 00:50:01;;;;;;;;;6.00;5.00;;;;;10.77;66.84;100273.00;5065955;28;46247;-88
2023/04/08 00:52:26;;;;;;;;;4.75;4.75;;;;;10.74;66.90;100271.19;5066606;28;45420;-87
2023/04/08 00:54:52;;;;;;;;;8.25;6.00;;;;;10.67;66.99;100264.94;5070822;28;45472;-88
2023/04/08 00:57:17;;;;;;;;;7.00;5.50;;;;;10.72;67.42;100267.66;5047245;28;45597;-80
2023/04/08 00:59:43;;;;;;;;;6.00;5.75;;;;;10.60;67.57;100257.78;5070825;28;45627;-87
2023/04/08 01:02:17;;;;;;;;;5.75;5.00;;;;;10.65;67.43;100269.22;5071576;28;45516;-87
2023/04/08 01:04:52;;;;;;;;;5.50;5.00;;;;;10.65;67.33;100268.34;5066182;28;45323;-81
2023/04/08 01:07:27;;;;;;;;;5.00;5.00;;;;;10.61;67.51;100270.00;5075814;28;45628;-83
2023/04/08 01:10:01;;;;;;;;;5.75;5.00;;;;;10.50;67.55;100261.91;5069569;28;46217;-88
2023/04/08 01:12:30;;;;;;;;;6.00;5.25;;;;;10.58;67.74;100267.31;5069441;28;45494;-84
2023/04/08 01:15:07;;;;;;;;;4.25;4.00;;;;;10.61;67.33;100274.34;5078933;28;45348;-79
2023/04/08 01:17:36;;;;;;;;;3.50;3.50;;;;;10.60;67.47;100272.56;5067657;28;45473;-88
2023/04/08 01:20:03;;;;;;;;;5.50;4.50;;;;;10.54;67.74;100275.91;5070442;28;46253;-89
2023/04/08 01:23:12;;;;;;;;;3.50;3.50;;;;;10.52;68.46;100280.19;5077064;28;45513;-87
2023/04/08 01:25:38;;;;;;;;;8.50;7.00;;;;;10.47;68.29;100280.09;5066906;28;45404;-89
2023/04/08 01:28:11;;;;;;;;;5.00;4.50;;;;;10.44;68.27;100271.28;5068071;28;46292;-75
2023/04/08 01:30:40;;;;;;;;;5.00;4.00;;;;;10.44;68.16;100261.72;5068190;28;46303;-88
2023/04/08 01:33:06;;;;;;;;;5.00;4.25;;;;;10.30;68.97;100243.09;5068850;28;45398;-88
2023/04/08 01:35:32;;;;;;;;;4.50;4.50;;;;;10.40;68.55;100259.88;5053955;28;45525;-88
2023/04/08 01:38:00;;;;;;;;;4.75;4.00;;;;;10.41;68.89;100269.50;5075522;28;45411;-89
2023/04/08 01:40:26;;;;;;;;;8.00;5.00;;;;;10.26;68.39;100245.56;5057562;28;45557;-88
2023/04/08 01:42:55;;;;;;;;;5.00;4.00;;;;;10.26;68.42;100262.09;5062717;28;45489;-88
2023/04/08 01:45:22;;;;;;;;;6.25;5.00;;;;;10.28;69.02;100276.06;5064525;28;45394;-85
2023/04/08 01:47:48;;;;;;;;;5.00;5.00;;;;;10.22;70.13;100269.81;5072186;28;45410;-88
2023/04/08 01:50:15;;;;;;;;;6.50;4.25;;;;;10.09;69.85;100269.47;5057931;28;45556;-88
2023/04/08 01:52:44;;;;;;;;;5.50;4.00;;;;;10.00;70.14;100276.16;5067900;28;45521;-88
2023/04/08 01:55:10;;;;;;;;;4.00;4.00;;;;;9.98;70.26;100270.91;5069437;28;45561;-88
2023/04/08 01:57:38;;;;;;;;;5.75;5.00;;;;;9.98;70.57;100268.28;5073134;28;45857;-74
2023/04/08 02:00:09;;;;;;;;;6.25;6.25;;;;;10.01;70.04;100275.31;5073243;28;45963;-87
2023/04/08 02:02:41;;;;;;;;;4.00;4.00;;;;;10.00;70.31;100278.78;5048309;28;45406;-88
2023/04/08 02:05:07;;;;;;;;;4.50;4.50;;;;;9.93;69.92;100277.72;5057097;28;45540;-86
2023/04/08 02:07:33;;;;;;;;;4.75;4.25;;;;;9.88;69.35;100267.16;5070725;28;45628;-83
2023/04/08 02:09:58;;;;;;;;;5.50;4.50;;;;;9.85;69.44;100259.25;5073398;28;45647;-86
2023/04/08 02:12:25;;;;;;;;;4.75;4.00;;;;;9.87;69.33;100257.56;5055430;28;45496;-88
2023/04/08 02:14:52;;;;;;;;;3.75;3.75;;;;;9.93;69.32;100268.19;5074619;28;45427;-88
2023/04/08 02:17:33;;;;;;;;;5.75;5.00;;;;;9.87;69.96;100275.81;5057116;28;45626;-85
2023/04/08 02:20:07;;;;;;;;;7.00;6.25;;;;;9.92;69.90;100270.72;5067429;28;45283;-87
2023/04/08 02:22:56;;;;;;;;;4.00;3.75;;;;;9.85;69.59;100263.59;5067108;28;45509;-88
2023/04/08 02:25:24;;;;;;;;;6.00;4.00;;;;;9.88;69.49;100279.31;5073096;28;45553;-89
2023/04/08 02:27:51;;;;;;;;;7.00;6.50;;;;;9.85;69.63;100264.47;5071205;28;45579;-89
2023/04/08 02:30:18;;;;;;;;;4.50;4.50;;;;;9.84;69.81;100269.63;5066226;28;46280;-88
2023/04/08 02:32:46;;;;;;;;;5.50;5.00;;;;;9.80;70.07;100270.38;5073301;28;45496;-88
2023/04/08 02:35:13;;;;;;;;;6.75;5.00;;;;;9.79;69.89;100268.59;5068658;28;45243;-87
2023/04/08 02:37:39;;;;;;;;;4.75;4.00;;;;;9.73;70.38;100280.66;5051732;28;45577;-86
2023/04/08 02:40:25;;;;;;;;;6.25;5.00;;;;;9.59;70.78;100250.69;5064553;28;45925;-88
2023/04/08 02:42:50;;;;;;;;;7.00;5.25;;;;;9.61;70.70;100264.66;5065566;28;45421;-88
2023/04/08 02:45:16;;;;;;;;;5.75;5.00;;;;;9.58;70.60;100272.38;5069690;28;45591;-88
2023/04/08 02:47:42;;;;;;;;;4.00;4.00;;;;;9.49;70.23;100269.47;5066884;28;45367;-85
2023/04/08 02:50:08;;;;;;;;;4.00;4.00;;;;;9.51;69.95;100273.00;5067390;28;45479;-88
2023/04/08 02:52:34;;;;;;;;;4.75;4.00;;;;;9.48;70.34;100262.50;5072725;28;45445;-88
2023/04/08 02:54:59;;;;;;;;;5.00;5.00;;;;;9.56;70.18;100279.25;5077632;28;45430;-88
2023/04/08 02:57:25;;;;;;;;;4.25;4.25;;;;;9.54;69.88;100278.34;5078482;28;46005;-88
2023/04/08 02:59:50;;;;;;;;;5.00;4.75;;;;;9.53;70.11;100292.22;5079089;28;45954;-88
2023/04/08 03:02:16;;;;;;;;;3.50;3.50;;;;;9.49;70.20;100290.34;5078981;28;45522;-88
2023/04/08 03:04:41;;;;;;;;;4.00;4.00;;;;;9.39;70.02;100288.28;5078673;28;45755;-88
2023/04/08 03:07:07;;;;;;;;;5.00;5.00;;;;;9.34;69.52;100288.16;5078711;28;45923;-84
2023/04/08 03:09:32;;;;;;;;;4.75;4.75;;;;;9.25;70.42;100270.53;5059032;28;45476;-88
2023/04/08 03:11:58;;;;;;;;;7.00;4.50;;;;;9.28;70.83;100283.63;5061697;28;45285;-88
2023/04/08 03:14:24;;;;;;;;;7.00;5.00;;;;;9.30;70.62;100281.97;5094803;27;45518;-88
2023/04/08 03:16:49;;;;;;;;;7.00;4.25;;;;;9.24;70.76;100273.09;5079022;28;45383;-88
2023/04/08 03:19:15;;;;;;;;;7.00;5.00;;;;;9.29;71.36;100285.44;5076788;28;46009;-88
2023/04/08 03:21:40;;;;;;;;;7.00;6.50;;;;;9.28;70.79;100281.03;5077983;28;45530;-77
2023/04/08 03:24:06;;;;;;;;;6.50;6.50;;;;;9.27;70.48;100281.88;5075764;28;45389;-89
2023/04/08 03:26:31;;;;;;;;;6.50;6.50;;;;;9.24;70.21;100278.28;5040045;28;45637;-87
2023/04/08 03:28:57;;;;;;;;;5.25;5.00;;;;;9.10;70.03;100270.03;5076038;28;46086;-88
2023/04/08 03:31:22;;;;;;;;;5.25;5.25;;;;;9.15;70.66;100281.47;5095388;28;45539;-83
2023/04/08 03:33:48;;;;;;;;;6.75;4.00;;;;;9.04;70.95;100285.50;5089634;28;45307;-88
2023/04/08 03:36:13;;;;;;;;;8.00;7.00;;;;;8.87;71.18;100271.91;5078836;28;45329;-88
2023/04/08 03:38:39;;;;;;;;;5.25;4.00;;;;;9.00;71.36;100294.03;5078210;28;45618;-87
2023/04/08 03:41:04;;;;;;;;;6.25;5.50;;;;;9.00;71.67;100291.44;5077141;28;45752;-86
2023/04/08 03:43:30;;;;;;;;;6.50;5.25;;;;;9.01;71.39;100285.38;5060021;28;45442;-87
2023/04/08 03:45:55;;;;;;;;;7.00;5.25;;;;;9.02;71.11;100281.94;5059535;28;45544;-87
2023/04/08 03:48:22;;;;;;;;;5.50;4.00;;;;;8.93;70.57;100279.91;5077220;28;45422;-87
2023/04/08 03:50:48;;;;;;;;;7.00;6.50;;;;;8.86;70.03;100276.25;5059014;28;45382;-87
2023/04/08 03:53:13;;;;;;;;;5.00;4.75;;;;;8.90;69.74;100278.09;5059239;28;45656;-86
2023/04/08 03:55:39;;;;;;;;;8.00;7.25;;;;;8.87;69.74;100278.03;5077966;28;45587;-85
2023/04/08 03:58:05;;;;;;;;;4.00;4.00;;;;;8.88;69.73;100279.78;5077523;28;46147;-86
2023/04/08 04:00:30;;;;;;;;;4.00;4.00;;;;;8.90;69.91;100285.91;5077498;28;45390;-87
2023/04/08 04:02:56;;;;;;;;;4.50;4.50;;;;;8.83;70.26;100278.72;5077466;28;45461;-87
2023/04/08 04:05:22;;;;;;;;;7.00;7.00;;;;;8.75;71.04;100281.09;5058874;28;45404;-87
2023/04/08 04:07:47;;;;;;;;;6.00;6.00;;;;;8.74;71.18;100281.94;5075322;28;45781;-87
2023/04/08 04:10:13;;;;;;;;;6.50;6.25;;;;;8.80;71.18;100288.19;5052082;28;45497;-86
2023/04/08 04:12:38;;;;;;;;;6.00;4.75;;;;;8.72;70.65;100274.91;5068486;28;45436;-88
2023/04/08 04:15:05;;;;;;;;;7.75;7.00;;;;;8.82;71.15;100290.00;5077470;28;45429;-87
2023/04/08 04:17:30;;;;;;;;;7.50;7.50;;;;;8.80;71.09;100286.47;5074879;27;47136;-88
2023/04/08 04:19:56;;;;;;;;;7.00;6.00;;;;;8.79;71.01;100286.41;5076545;28;45564;-86
2023/04/08 04:22:21;;;;;;;;;8.00;7.00;;;;;8.77;70.91;100286.34;5076361;28;45359;-87
2023/04/08 04:24:48;;;;;;;;;8.50;6.75;;;;;8.72;71.40;100290.53;5076944;28;45402;-84
2023/04/08 04:27:16;;;;;;;;;7.50;7.00;;;;;8.63;70.89;100272.00;5057583;28;46430;-76
2023/04/08 04:29:42;;;;;;;;;7.75;7.75;;;;;8.64;70.51;100279.84;5076390;28;46477;-87
2023/04/08 04:32:07;;;;;;;;;8.00;8.00;;;;;8.63;71.01;100288.50;5077230;28;45358;-88
2023/04/08 04:34:33;;;;;;;;;6.75;5.50;;;;;8.51;70.62;100275.94;5076742;28;45473;-88
2023/04/08 04:36:58;;;;;;;;;6.00;6.00;;;;;8.55;70.69;100287.34;5074947;28;46092;-86
2023/04/08 04:39:24;;;;;;;;;5.75;4.75;;;;;8.50;71.14;100292.41;5076394;28;45521;-88
2023/04/08 04:41:49;;;;;;;;;7.00;7.00;;;;;8.50;71.18;100291.53;5076536;27;46589;-88
2023/04/08 04:44:15;;;;;;;;;7.50;7.25;;;;;8.50;70.95;100295.00;5077075;28;45527;-75
2023/04/08 04:46:41;;;;;;;;;7.75;6.50;;;;;8.50;70.54;100284.59;5060128;28;45858;-88
2023/04/08 04:49:06;;;;;;;;;2.50;2.00;;;;;8.42;71.22;100290.38;5076574;28;45357;-88
2023/04/08 04:51:32;;;;;;;;;7.25;6.25;;;;;8.42;71.04;100287.78;5076584;28;45394;-87
2023/04/08 04:53:58;;;;;;;;;6.75;6.00;;;;;8.40;71.25;100294.63;5076810;28;45438;-88
2023/04/08 04:56:25;;;;;;;;;8.25;7.75;;;;;8.40;71.14;100294.63;5057943;28;47704;-88
2023/04/08 04:58:50;;;;;;;;;7.25;7.25;;;;;8.30;71.14;100278.69;5076664;28;45408;-87
2023/04/08 05:01:16;;;;;;;;;9.00;8.00;;;;;8.39;71.03;100295.44;5058566;28;45518;-72
2023/04/08 05:03:42;;;;;;;;;7.00;6.00;;;;;8.35;71.46;100297.03;5077234;28;45517;-88
2023/04/08 05:06:07;;;;;;;;;8.25;8.00;;;;;8.32;71.79;100296.97;5075824;28;45872;-88
2023/04/08 05:08:33;;;;;;;;;8.00;8.00;;;;;8.23;72.38;100287.09;5052794;28;45384;-87
2023/04/08 05:11:01;;;;;;;;;9.50;8.50;;;;;8.29;72.27;100302.91;5064780;28;45457;-87
2023/04/08 05:13:31;;;;;;;;;7.50;7.50;;;;;8.29;72.50;100305.53;5058463;28;45485;-88
2023/04/08 05:15:56;;;;;;;;;8.00;8.00;;;;;8.27;72.51;100308.91;5071568;28;45964;-87
2023/04/08 05:18:22;;;;;;;;;9.75;8.50;;;;;8.21;72.54;100298.28;5076435;28;45477;-85
2023/04/08 05:20:47;;;;;;;;;9.00;8.00;;;;;8.30;72.09;100311.63;5066172;28;45470;-75
2023/04/08 05:23:13;;;;;;;;;8.25;7.50;;;;;8.31;72.35;100313.38;5051810;28;45389;-87
2023/04/08 05:25:38;;;;;;;;;10.75;8.75;;;;;8.31;72.19;100311.66;5073821;28;46173;-83
2023/04/08 05:28:04;;;;;;;;;8.50;8.00;;;;;8.32;71.61;100318.66;5057055;28;45440;-84
2023/04/08 05:30:30;;;;;;;;;9.00;9.00;;;;;8.31;71.25;100318.59;5076176;28;45567;-82
2023/04/08 05:32:55;;;;;;;;;7.75;7.75;;;;;8.33;71.44;100319.53;5076380;28;45492;-85
2023/04/08 05:35:21;;;;;;;;;9.75;9.00;;;;;8.36;70.76;100322.25;5075809;28;46272;-86
2023/04/08 05:37:46;;;;;;;;;8.00;8.00;;;;;8.38;70.80;100328.41;5042272;28;45585;-79
2023/04/08 05:40:12;;;;;;;;;10.00;9.00;;;;;8.39;70.83;100329.28;5074536;28;46392;-87
2023/04/08 05:42:37;;;;;;;;;8.25;6.50;;;;;8.42;71.27;100332.03;5076186;28;45478;-87
2023/04/08 05:45:04;;;;;;;;;7.00;6.50;;;;;8.44;70.98;100330.38;5075995;28;45730;-88
2023/04/08 05:47:30;;;;;;;;;12.00;12.00;;;;;8.49;70.84;100334.00;5067790;28;45387;-86
2023/04/08 05:49:55;;;;;;;;;8.00;7.75;;;;;8.50;70.97;100333.19;5052428;28;45386;-83
2023/04/08 05:52:21;;;;;;;;;8.00;8.00;;;;;8.46;70.84;100332.19;5079495;28;45544;-87
2023/04/08 05:54:46;;;;;;;;;8.00;7.50;;;;;8.50;71.28;100341.88;5078865;27;45532;-87
2023/04/08 05:57:12;;;;;;;;;12.75;12.25;;;;;8.49;70.94;100334.88;5077482;28;45599;-86
2023/04/08 05:59:37;;;;;;;;;12.75;9.00;;;;;8.63;71.01;100352.72;5060469;28;46306;-87
2023/04/08 06:02:03;;;;;;;;;8.50;8.00;;;;;8.67;70.67;100354.59;5078939;28;45525;-86
2023/04/08 06:04:29;;;;;;;;;6.25;6.00;;;;;8.64;70.38;100342.34;5077785;28;45478;-86
2023/04/08 06:06:58;;;;;;;;;3.50;2.75;;;;;8.62;70.52;100340.53;5076443;28;45438;-82
2023/04/08 06:09:24;;;;;;;;;7.00;6.75;;;;;8.73;70.54;100360.91;5077984;28;45549;-75
2023/04/08 06:11:50;;;;;;;;;9.00;8.00;;;;;8.78;69.88;100365.38;5077803;28;45533;-79
2023/04/08 06:14:17;;;;;;;;;7.00;7.00;;;;;8.80;69.49;100364.59;5071613;28;45440;-84
2023/04/08 06:16:42;;;;;;;;;7.00;6.25;;;;;8.88;68.97;100364.88;5078709;28;45441;-75
2023/04/08 06:19:08;;;;;;;;;7.50;7.00;;;;;8.82;69.22;100356.84;5052852;28;45496;-86
2023/04/08 06:21:34;;;;;;;;;8.00;7.00;;;;;8.91;69.27;100368.47;5078964;28;45511;-84
2023/04/08 06:23:59;;;;;;;;;8.00;7.00;;;;;8.94;69.25;100370.28;5078245;28;46347;-88
2023/04/08 06:26:26;;;;;;;;;8.00;7.00;;;;;9.01;69.50;100376.56;5078878;28;45341;-78
2023/04/08 06:28:52;;;;;;;;;7.75;7.00;;;;;8.86;70.07;100363.94;5075696;28;45374;-75
2023/04/08 06:31:18;;;;;;;;;9.75;9.00;;;;;8.87;70.11;100383.91;5080012;27;45374;-86
2023/04/08 06:33:43;;;;;;;;;7.25;7.25;;;;;8.83;70.29;100385.53;5081052;28;46114;-86
2023/04/08 06:36:10;;;;;;;;;7.75;7.00;;;;;8.80;69.82;100367.19;5080104;28;45656;-70
2023/04/08 06:38:35;;;;;;;;;9.00;8.75;;;;;8.96;70.27;100385.13;5085495;28;45474;-71
2023/04/08 06:41:07;;;;;;;;;8.75;8.25;;;;;9.01;70.22;100389.59;5083194;28;45467;-83
2023/04/08 06:43:34;;;;;;;;;11.75;9.75;;;;;9.11;69.90;100391.66;5080815;28;45498;-84
2023/04/08 06:46:00;;;;;;;;;13.00;12.00;;;;;9.00;70.17;100387.84;5102071;28;45404;-79
2023/04/08 06:48:28;;;;;;;;;7.50;7.50;;;;;9.48;69.69;100372.91;5102735;28;45295;-78
2023/04/08 06:50:58;;;;;;;;;9.75;8.50;;;;;12.73;64.02;100391.53;5101386;28;45315;-73
2023/04/08 06:53:24;;;;;;;;;21.50;20.75;;;;;15.29;54.63;100380.13;5104318;28;44998;-75
2023/04/08 06:55:50;;;;;;;;;37.75;34.50;;;;;17.07;50.06;100380.13;5102479;28;45306;-78
2023/04/08 06:58:16;;;;;;;;;16.00;15.00;;;;;18.57;45.89;100375.38;5107068;28;45341;-70
2023/04/08 07:01:15;;;;;;;;;7.75;7.75;;;;;20.00;42.12;100369.81;5107236;28;44892;-71
2023/04/08 07:03:44;;;;;;;;;8.75;8.25;;;;;21.30;40.25;100368.88;5093660;28;46112;-70
2023/04/08 07:06:21;;;;;;;;;9.67;9.67;;;;;22.27;37.51;100372.44;5104364;28;44702;-83
2023/04/08 07:08:50;;;;;;;;;10.33;7.33;;;;;23.17;36.35;100369.50;5053375;28;45345;-88
2023/04/08 07:11:22;;;;;;;;;7.67;7.33;;;;;24.22;35.07;100356.91;5060256;28;45414;-88
2023/04/08 07:13:48;;;;;;;;;7.33;7.00;;;;;24.94;32.73;100355.63;5076784;28;45374;-81
2023/04/08 07:16:14;;;;;;;;;8.00;6.33;;;;;25.80;32.08;100363.41;5076889;28;45240;-88
2023/04/08 07:18:43;;;;;;;;;9.00;6.33;;;;;26.71;30.72;100366.28;5070790;28;45301;-85
2023/04/08 07:21:10;;;;;;;;;6.00;6.00;;;;;27.24;29.59;100374.91;5067537;28;45316;-90
2023/04/08 07:23:36;;;;;;;;;8.00;7.33;;;;;27.82;27.85;100353.59;5051951;28;45423;-86
2023/04/08 07:26:06;;;;;;;;;6.00;6.00;;;;;28.65;28.82;100371.34;5069835;28;45169;-84
2023/04/08 07:28:31;;;;;;;;;8.00;7.00;;;;;28.94;26.12;100363.66;5072806;28;45252;-89
2023/04/08 07:31:08;;;;;;;;;8.00;8.00;;;;;28.91;27.26;100363.81;5069019;28;45352;-89
2023/04/08 07:33:34;;;;;;;;;7.67;7.67;;;;;29.22;26.52;100367.69;5059708;28;45350;-88
2023/04/08 07:35:59;;;;;;;;;8.00;8.00;;;;;29.62;26.03;100371.03;5059282;28;45409;-85
2023/04/08 07:38:25;;;;;;;;;9.33;8.33;;;;;30.00;26.11;100370.84;5061073;28;45406;-88
2023/04/08 07:40:51;;;;;;;;;9.33;9.33;;;;;30.31;25.34;100372.78;5055064;28;45444;-88
2023/04/08 07:43:17;;;;;;;;;12.33;11.33;;;;;30.72;24.90;100367.75;5077792;28;45596;-78
2023/04/08 07:45:44;;;;;;;;;15.67;15.00;;;;;31.14;23.47;100368.09;5074553;28;45621;-89
2023/04/08 07:48:09;;;;;;;;;15.00;15.00;;;;;31.42;23.25;100375.44;5077158;28;45510;-84
2023/04/08 07:50:36;;;;;;;;;13.33;13.33;;;;;32.01;23.58;100369.22;5077109;28;45439;-88
2023/04/08 07:53:02;;;;;;;;;14.00;14.00;;;;;32.14;22.66;100355.81;5076027;28;46191;-84
2023/04/08 07:55:33;;;;;;;;;6.67;6.67;;;;;32.47;22.25;100359.06;5076212;28;45453;-88
2023/04/08 07:57:58;;;;;;;;;9.67;9.00;;;;;32.50;22.04;100369.66;5076317;28;45492;-92
2023/04/08 08:00:25;;;;;;;;;9.67;8.33;;;;;32.84;21.44;100363.94;5076514;28;45859;-88
2023/04/08 08:02:50;;;;;;;;;9.00;8.67;;;;;32.53;21.66;100373.16;5053030;28;46054;-87
2023/04/08 08:05:16;;;;;;;;;8.33;8.33;;;;;32.54;22.56;100364.94;5051654;28;45422;-88
2023/04/08 08:07:41;;;;;;;;;9.33;9.33;;;;;32.87;22.28;100372.72;5058451;28;45398;-87
2023/04/08 08:10:07;;;;;;;;;8.33;8.33;;;;;33.00;21.87;100369.19;5058020;28;45437;-88
2023/04/08 08:12:33;;;;;;;;;5.67;5.67;;;;;33.24;23.83;100374.81;5075894;28;45622;-86
2023/04/08 08:14:59;;;;;;;;;4.00;4.00;;;;;33.69;20.90;100359.13;5076921;28;45607;-90
2023/04/08 08:17:25;;;;;;;;;6.00;6.00;;;;;33.53;20.84;100363.84;5078413;28;45539;-90
2023/04/08 08:19:50;;;;;;;;;5.00;5.00;;;;;33.93;21.28;100370.09;5075825;28;45565;-87
2023/04/08 08:22:16;;;;;;;;;5.00;4.00;;;;;34.42;20.74;100380.16;5057495;28;47777;-87
2023/04/08 08:24:42;;;;;;;;;4.00;4.00;;;;;34.61;20.20;100379.66;5077614;28;45474;-88
2023/04/08 08:27:11;;;;;;;;;5.33;5.33;;;;;34.67;20.08;100376.53;5059202;28;45923;-87
2023/04/08 08:29:37;;;;;;;;;7.33;7.33;;;;;34.82;19.55;100385.41;5074817;28;45350;-87
2023/04/08 08:32:03;;;;;;;;;4.00;3.00;;;;;34.98;19.95;100378.81;5072027;28;45411;-79
2023/04/08 08:34:29;;;;;;;;;4.00;4.00;;;;;35.15;19.43;100385.69;5065472;28;45514;-75
2023/04/08 08:36:55;;;;;;;;;4.67;4.67;;;;;35.05;19.77;100388.22;5058455;28;45711;-82
2023/04/08 08:39:22;;;;;;;;;6.00;6.00;;;;;35.12;19.84;100389.50;5073477;28;45405;-83
2023/04/08 08:41:47;;;;;;;;;16.33;16.00;;;;;35.58;20.16;100386.00;5046068;28;46576;-82
2023/04/08 08:44:13;;;;;;;;;10.33;10.33;;;;;35.94;18.82;100383.28;5076073;28;45562;-82
2023/04/08 08:46:47;;;;;;;;;5.67;5.67;;;;;36.32;19.23;100382.09;5076386;28;45390;-79
2023/04/08 08:49:12;;;;;;;;;3.00;3.00;;;;;36.36;19.75;100386.28;5074214;27;45394;-75
2023/04/08 08:51:42;;;;;;;;;5.00;4.00;;;;;36.93;18.53;100374.34;5058428;28;47318;-87
2023/04/08 08:54:08;;;;;;;;;2.67;2.67;;;;;37.09;19.30;100376.66;5069422;28;45493;-84
2023/04/08 08:56:33;;;;;;;;;10.67;10.67;;;;;36.90;17.78;100380.03;5075654;28;45568;-76
2023/04/08 08:58:59;;;;;;;;;3.67;3.67;;;;;36.91;18.78;100384.50;5075753;28;45385;-76
2023/04/08 09:01:36;;;;;;;;;7.67;6.67;;;;;36.72;17.98;100387.88;5063795;28;46404;-73
2023/04/08 09:04:10;;;;;;;;;5.00;3.00;;;;;36.55;18.88;100375.63;5074291;28;45413;-70
2023/04/08 09:06:37;;;;;;;;;2.00;2.00;;;;;36.88;18.59;100390.19;5075314;28;45410;-70
2023/04/08 09:09:05;;;;;;;;;3.67;3.67;;;;;37.18;18.42;100384.03;5076382;28;45556;-71
2023/04/08 09:11:31;;;;;;;;;4.00;3.00;;;;;36.72;19.14;100387.00;5075862;28;45390;-70
2023/04/08 09:13:57;;;;;;;;;3.67;3.67;;;;;36.66;19.60;100392.97;5075994;28;45506;-70
2023/04/08 09:16:23;;;;;;;;;3.67;3.67;;;;;37.06;19.69;100378.75;5075306;28;45433;-71
2023/04/08 09:18:49;;;;;;;;;5.00;4.00;;;;;37.16;19.40;100360.66;5075919;28;46077;-70
2023/04/08 09:21:16;;;;;;;;;3.00;3.00;;;;;37.49;19.23;100386.91;5074533;28;45504;-71
2023/04/08 09:23:46;;;;;;;;;13.67;12.67;;;;;37.69;19.63;100392.53;5076598;28;45461;-70
2023/04/08 09:26:15;;;;;;;;;7.00;6.67;;;;;37.65;18.55;100393.78;5078905;27;45576;-72
2023/04/08 09:28:41;;;;;;;;;5.00;5.00;;;;;37.26;19.87;100383.41;5068092;28;45451;-70
2023/04/08 09:31:24;;;;;;;;;4.00;4.00;;;;;37.13;19.40;100391.75;5076958;28;46499;-69
2023/04/08 09:33:52;;;;;;;;;3.00;3.00;;;;;36.93;19.93;100389.78;5069137;28;45881;-69
2023/04/08 09:36:18;;;;;;;;;4.67;4.67;;;;;36.61;19.91;100380.56;5078361;28;45684;-70
2023/04/08 09:38:44;;;;;;;;;3.00;3.00;;;;;36.11;20.99;100385.53;5078572;28;45621;-69
2023/04/08 09:41:15;;;;;;;;;4.33;4.00;;;;;35.98;20.91;100376.59;5078924;28;45412;-69
2023/04/08 09:43:48;;;;;;;;;4.00;3.33;;;;;35.73;21.02;100378.53;5077933;28;45811;-70
2023/04/08 09:46:17;;;;;;;;;3.00;3.00;;;;;35.56;21.10;100387.13;5078527;27;45497;-70
2023/04/08 09:48:50;;;;;;;;;2.67;2.67;;;;;35.08;21.40;100395.25;5078754;28;45478;-72
2023/04/08 09:51:18;;;;;;;;;2.67;2.67;;;;;34.15;22.04;100391.13;5078234;28;46151;-74
2023/04/08 09:53:55;;;;;;;;;2.00;2.00;;;;;34.04;22.41;100393.69;5077987;28;45963;-71
2023/04/08 09:56:21;;;;;;;;;3.00;3.00;;;;;33.70;22.58;100392.50;5078108;28;45234;-72
2023/04/08 09:58:53;;;;;;;;;3.00;3.00;;;;;33.14;23.09;100395.38;5077990;28;45426;-79
2023/04/08 10:01:31;;;;;;;;;4.00;4.00;;;;;33.06;23.23;100396.69;5076797;28;45509;-80
2023/04/08 10:03:58;;;;;;;;;4.33;4.33;;;;;32.99;22.83;100394.50;5076908;28;46417;-74
2023/04/08 10:06:28;;;;;;;;;6.67;6.33;;;;;32.59;23.79;100392.59;5077432;28;45366;-80
2023/04/08 10:08:55;;;;;;;;;4.00;3.67;;;;;32.10;23.69;100385.72;5077620;28;45506;-74
2023/04/08 10:11:22;;;;;;;;;5.00;4.33;;;;;31.86;23.71;100401.59;5076763;28;45473;-78
2023/04/08 10:13:48;;;;;;;;;6.67;6.67;;;;;31.63;23.67;100404.81;5076762;27;45405;-76
2023/04/08 10:16:21;;;;;;;;;3.67;3.67;;;;;30.71;24.75;100401.06;5077870;28;45588;-86
2023/04/08 10:18:49;;;;;;;;;3.00;3.00;;;;;30.29;24.69;100397.06;5076352;28;45525;-80
2023/04/08 10:21:35;;;;;;;;;3.00;3.00;;;;;29.74;24.76;100395.53;5074787;28;46097;-74
2023/04/08 10:24:05;;;;;;;;;3.67;2.67;;;;;29.43;25.23;100398.03;5076297;28;45507;-82
2023/04/08 10:26:35;;;;;;;;;2.00;2.00;;;;;29.62;25.83;100393.41;5077004;28;45449;-82
2023/04/08 10:29:21;;;;;;;;;2.67;2.67;;;;;29.21;25.47;100395.53;5077107;28;45510;-79
2023/04/08 10:31:51;;;;;;;;;4.00;4.00;;;;;29.30;25.36;100392.38;5075810;28;46050;-73
2023/04/08 10:34:26;;;;;;;;;2.00;2.00;;;;;29.45;24.70;100386.22;5076380;28;45609;-82
2023/04/08 10:36:54;;;;;;;;;2.67;2.67;;;;;29.45;24.65;100397.00;5075128;28;45443;-81
2023/04/08 10:39:20;;;;;;;;;3.00;1.67;;;;;29.33;24.31;100389.53;5077364;28;45472;-80
2023/04/08 10:41:47;;;;;;;;;2.33;1.67;;;;;29.44;24.50;100387.16;5076571;28;46054;-81
2023/04/08 10:44:18;;;;;;;;;2.33;2.33;;;;;29.31;24.81;100388.75;5077377;28;45492;-81
2023/04/08 10:46:45;;;;;;;;;3.00;3.00;;;;;28.82;25.53;100383.06;5077305;28;45240;-82
2023/04/08 10:49:11;;;;;;;;;0.00;0.00;;;;;28.87;25.39;100394.47;5077842;28;45574;-72
2023/04/08 10:51:38;;;;;;;;;3.33;2.67;;;;;28.72;26.47;100372.75;5077226;27;45385;-82
2023/04/08 10:54:09;;;;;;;;;3.33;3.00;;;;;28.77;25.93;100394.06;5077365;28;45574;-74
2023/04/08 10:56:36;;;;;;;;;3.67;3.33;;;;;28.26;25.93;100388.34;5077797;28;45387;-75
2023/04/08 10:59:02;;;;;;;;;3.33;3.33;;;;;27.64;26.94;100379.44;5077938;28;45444;-81
2023/04/08 11:01:39;;;;;;;;;4.00;4.00;;;;;27.33;27.17;100390.63;5059212;28;45476;-80
2023/04/08 11:04:17;;;;;;;;;2.00;2.00;;;;;27.33;27.16;100393.28;5060203;28;45282;-71
2023/04/08 11:06:44;;;;;;;;;2.00;2.00;;;;;27.23;27.21;100389.22;5059777;28;45332;-82
2023/04/08 11:09:10;;;;;;;;;2.00;2.00;;;;;26.92;27.06;100386.00;5078538;28;45330;-84
2023/04/08 11:11:36;;;;;;;;;3.00;3.00;;;;;26.76;27.44;100375.03;5078100;28;46191;-78
2023/04/08 11:14:03;;;;;;;;;3.33;3.00;;;;;26.82;26.98;100383.72;5077933;28;45441;-81
2023/04/08 11:16:28;;;;;;;;;3.00;2.00;;;;;26.72;26.58;100384.13;5078350;27;45366;-81
2023/04/08 11:18:55;;;;;;;;;2.00;2.00;;;;;26.85;26.40;100384.50;5059380;28;45439;-80
2023/04/08 11:21:28;;;;;;;;;2.00;2.00;;;;;26.90;26.70;100381.63;5077661;28;45375;-78
2023/04/08 11:23:55;;;;;;;;;1.33;1.33;;;;;26.89;25.82;100371.84;5078348;28;45409;-79
2023/04/08 11:26:21;;;;;;;;;1.33;1.33;;;;;26.79;25.82;100364.16;5078994;28;45535;-82
2023/04/08 11:28:50;;;;;;;;;1.33;1.33;;;;;26.36;26.27;100373.88;5078610;28;45379;-81